Time;durP1;ratioP1;P1;durP2;ratioP2;P2;SDS_P1;SDS_P2;PMS_P1;PMS_P2;Temp;Humidity;BMP_temperature;BMP_pressure;BME280_temperature;BME280_humidity;BME280_pressure;Samples;Min_cycle;Max_cycle;Signal;HPM_P1;HPM_P2
2022/09/04 00:01:46;;;;;;;6.13;4.68;;;;;;;21.26;100.00;61586.06;5009893;28;20046;-83
2022/09/04 00:04:24;;;;;;;7.15;4.72;;;;;;;21.26;100.00;61586.06;5011211;28;20030;-84
2022/09/04 00:07:20;;;;;;;5.15;4.60;;;;;;;19.94;100.00;61586.06;5026625;28;20505;-84
2022/09/04 00:10:16;;;;;;;6.85;4.75;;;;;;;21.26;100.00;61586.06;5011499;28;20058;-83
2022/09/04 00:13:06;;;;;;;4.75;4.40;;;;;;;21.26;100.00;61586.06;5011582;28;20109;-83
2022/09/04 00:15:38;;;;;;;5.10;4.70;;;;;;;21.26;100.00;61586.06;5009571;28;20042;-84
2022/09/04 00:18:29;;;;;;;6.85;4.97;;;;;;;21.26;100.00;61586.06;5009814;28;20545;-83
2022/09/04 00:21:22;;;;;;;6.03;5.40;;;;;;;21.26;100.00;61586.06;5011146;28;20034;-83
2022/09/04 00:23:57;;;;;;;7.63;4.95;;;;;;;21.26;100.00;61586.06;5011252;28;20041;-83
2022/09/04 00:26:42;;;;;;;5.57;5.03;;;;;;;21.26;100.00;61586.06;5011649;28;20034;-84
2022/09/04 00:29:35;;;;;;;6.15;5.55;;;;;;;21.26;100.00;61586.06;5042684;28;20437;-83
2022/09/04 00:32:14;;;;;;;7.22;5.63;;;;;;;21.26;100.00;61586.06;4998049;28;20057;-81
2022/09/04 00:34:50;;;;;;;7.25;5.05;;;;;;;21.26;100.00;61586.06;5009161;28;20493;-85
2022/09/04 00:37:21;;;;;;;6.28;5.68;;;;;;;19.86;100.00;61586.06;5010822;28;20030;-81
2022/09/04 00:40:17;;;;;;;6.07;5.00;;;;;;;-144.47;100.00;61586.06;5016057;28;20030;-83
2022/09/04 00:42:46;;;;;;;6.10;5.50;;;;;;;19.97;100.00;61586.06;5027116;28;20133;-85
2022/09/04 00:45:18;;;;;;;6.80;6.10;;;;;;;19.54;100.00;61586.06;5011462;28;20033;-85
2022/09/04 00:48:21;;;;;;;6.90;6.40;;;;;;;-144.47;100.00;61586.06;5041294;28;20030;-84
2022/09/04 00:51:10;;;;;;;6.35;5.45;;;;;;;-144.47;100.00;61586.06;5011091;28;20431;-84
2022/09/04 00:54:00;;;;;;;6.85;5.10;;;;;;;-144.47;100.00;61586.06;5010583;28;20046;-84
2022/09/04 00:56:50;;;;;;;7.17;5.73;;;;;;;-144.47;100.00;61586.06;5009566;28;20018;-83
2022/09/04 00:59:49;;;;;;;4.90;4.50;;;;;;;-144.47;100.00;61586.06;5005683;28;20133;-83
2022/09/04 01:02:38;;;;;;;5.22;4.82;;;;;;;-144.47;100.00;61586.06;5039143;28;20120;-82
2022/09/04 01:05:31;;;;;;;8.10;5.00;;;;;;;-144.47;100.00;61586.06;5055574;22;20115;-78
2022/09/04 01:08:21;;;;;;;5.78;5.25;;;;;;;-144.47;100.00;61586.06;5067382;28;20032;-78
2022/09/04 01:10:50;;;;;;;5.50;4.90;;;;;;;-144.47;100.00;61586.06;5062494;28;20476;-78
2022/09/04 01:13:52;;;;;;;5.45;5.05;;;;;;;-144.47;100.00;61586.06;5066511;28;20074;-78
2022/09/04 01:16:36;;;;;;;6.60;5.15;;;;;;;19.56;100.00;61586.06;5065594;28;20123;-78
2022/09/04 01:19:42;;;;;;;5.40;4.90;;;;;;;-144.47;100.00;61586.06;5071406;28;20029;-78
2022/09/04 01:22:32;;;;;;;6.00;5.43;;;;;;;-144.47;100.00;61586.06;5068366;28;20028;-78
2022/09/04 01:25:16;;;;;;;5.70;5.15;;;;;;;-144.47;100.00;61586.06;5066119;28;20139;-78
2022/09/04 01:28:12;;;;;;;5.63;4.90;;;;;;;-144.47;100.00;61586.06;5070373;28;20487;-78
2022/09/04 01:31:07;;;;;;;6.70;6.10;;;;;;;-144.47;100.00;61586.06;5070251;28;20039;-78
2022/09/04 01:33:43;;;;;;;5.70;5.22;;;;;;;19.64;100.00;61586.06;5065148;28;20052;-77
2022/09/04 01:36:31;;;;;;;6.25;5.85;;;;;;;-144.47;100.00;61586.06;5065236;28;20389;-78
2022/09/04 01:38:59;;;;;;;6.15;5.57;;;;;;;-144.47;100.00;61586.06;5063806;28;20048;-78
2022/09/04 01:41:33;;;;;;;6.00;5.50;;;;;;;187.31;100.00;61586.06;5067249;28;20822;-77
2022/09/04 01:44:01;;;;;;;6.53;5.97;;;;;;;-144.47;100.00;61586.06;5068489;28;20119;-76
2022/09/04 01:46:46;;;;;;;6.97;6.38;;;;;;;-144.47;100.00;61586.06;5069210;28;20055;-77
2022/09/04 01:49:29;;;;;;;6.70;6.20;;;;;;;-144.47;100.00;61586.06;5051027;28;20102;-78
2022/09/04 01:52:17;;;;;;;6.53;5.85;;;;;;;-144.47;100.00;61586.06;5064589;28;20029;-76
2022/09/04 01:54:55;;;;;;;6.68;6.10;;;;;;;-144.47;100.00;61586.06;5068225;28;20165;-76
2022/09/04 01:57:27;;;;;;;6.05;5.03;;;;;;;-144.47;100.00;61586.06;5066955;28;20120;-78
2022/09/04 01:59:55;;;;;;;5.65;5.15;;;;;;;-144.47;100.00;61586.06;5068207;28;20120;-78
2022/09/04 02:02:41;;;;;;;6.65;5.95;;;;;;;-144.47;100.00;61586.06;5065921;28;20033;-79
2022/09/04 02:05:38;;;;;;;6.68;6.07;;;;;;;-144.47;100.00;61586.06;5079902;28;20127;-78
2022/09/04 02:08:10;;;;;;;6.38;5.78;;;;;;;-144.47;100.00;61586.06;5069637;28;20116;-78
2022/09/04 02:11:06;;;;;;;7.38;6.68;;;;;;;-144.47;100.00;61586.06;5068764;28;20037;-77
2022/09/04 02:13:55;;;;;;;7.10;6.60;;;;;;;-144.47;100.00;61586.06;5071162;28;20167;-78
2022/09/04 02:16:33;;;;;;;7.35;6.68;;;;;;;-144.47;100.00;61586.06;5067269;28;20175;-78
2022/09/04 02:19:16;;;;;;;6.95;6.45;;;;;;;19.11;100.00;61586.06;5071242;28;20040;-77
2022/09/04 02:22:23;;;;;;;7.70;5.88;;;;;;;-144.47;100.00;61586.06;5070138;28;20119;-78
2022/09/04 02:25:17;;;;;;;7.85;7.25;;;;;;;-144.47;100.00;61586.06;5070637;28;20056;-78
2022/09/04 02:27:55;;;;;;;8.27;7.63;;;;;;;-144.47;100.00;61586.06;5071449;28;20098;-79
2022/09/04 02:30:21;;;;;;;8.63;7.78;;;;;;;-144.47;100.00;61586.06;5068345;28;20040;-78
2022/09/04 02:32:53;;;;;;;9.30;8.50;;;;;;;-144.47;100.00;61586.06;5067482;28;20032;-77
2022/09/04 02:35:43;;;;;;;10.35;9.45;;;;;;;187.31;100.00;61586.06;5069059;28;20032;-77
2022/09/04 02:38:41;;;;;;;11.90;10.52;;;;;;;-144.47;100.00;61586.06;5070001;28;20857;-77
2022/09/04 02:41:26;;;;;;;12.00;10.93;;;;;;;-144.47;100.00;61586.06;5070679;28;20117;-77
2022/09/04 02:44:06;;;;;;;11.73;10.73;;;;;;;-144.47;100.00;61586.06;5070288;28;20078;-77
2022/09/04 02:46:54;;;;;;;13.73;12.23;;;;;;;-144.47;100.00;61586.06;5069897;28;20572;-76
2022/09/04 02:49:36;;;;;;;12.93;11.68;;;;;;;-144.47;100.00;61586.06;5068949;28;20044;-77
2022/09/04 02:52:14;;;;;;;14.05;11.63;;;;;;;-144.47;100.00;61586.06;5068690;28;20044;-77
2022/09/04 02:54:51;;;;;;;13.15;11.30;;;;;;;-144.47;100.00;61586.06;5063766;28;20372;-78
2022/09/04 02:57:55;;;;;;;12.57;11.38;;;;;;;-144.47;100.00;61586.06;5065983;28;20388;-78
2022/09/04 03:00:38;;;;;;;12.65;11.52;;;;;;;-144.47;100.00;61586.06;5072216;28;20407;-77
2022/09/04 03:03:30;;;;;;;10.38;9.40;;;;;;;18.42;100.00;61586.06;5073690;28;20025;-78
2022/09/04 03:06:22;;;;;;;10.57;9.57;;;;;;;-144.47;100.00;61586.06;5064763;28;20402;-78
2022/09/04 03:09:05;;;;;;;10.18;9.27;;;;;;;-144.47;100.00;61586.06;5064796;28;20045;-77
2022/09/04 03:11:47;;;;;;;10.18;8.88;;;;;;;18.67;100.00;61586.06;5069285;28;20037;-77
2022/09/04 03:14:37;;;;;;;10.27;9.43;;;;;;;-144.47;100.00;61586.06;5065517;28;20033;-77
2022/09/04 03:17:32;;;;;;;10.57;9.68;;;;;;;-144.47;100.00;61586.06;5065916;28;20028;-78
2022/09/04 03:20:15;;;;;;;9.73;8.93;;;;;;;19.97;100.00;61586.06;5064865;28;20055;-78
2022/09/04 03:22:56;;;;;;;10.45;9.38;;;;;;;19.97;100.00;61586.06;5069591;28;20037;-78
2022/09/04 03:25:37;;;;;;;10.05;8.57;;;;;;;19.97;100.00;61586.06;5064479;28;20033;-77
2022/09/04 03:28:04;;;;;;;11.40;10.27;;;;;;;-144.47;100.00;61586.06;5069323;28;20082;-78
2022/09/04 03:30:35;;;;;;;10.02;9.15;;;;;;;-144.47;100.00;61586.06;5068440;28;20044;-78
2022/09/04 03:33:04;;;;;;;10.55;9.73;;;;;;;-144.47;100.00;61586.06;5066610;28;20033;-78
2022/09/04 03:35:43;;;;;;;9.65;8.75;;;;;;;-144.47;100.00;61586.06;5071085;28;20056;-77
2022/09/04 03:38:28;;;;;;;9.85;9.10;;;;;;;-144.47;100.00;61586.06;5064001;28;20112;-78
2022/09/04 03:41:12;;;;;;;8.50;7.78;;;;;;;-144.47;100.00;61586.06;5072733;28;20036;-78
2022/09/04 03:43:53;;;;;;;8.00;7.30;;;;;;;-144.47;100.00;61586.06;5069294;28;20108;-78
2022/09/04 03:46:18;;;;;;;;;;;;;;;-144.47;100.00;61586.06;5068162;28;20388;-78
2022/09/04 03:49:04;;;;;;;8.80;7.93;;;;;;;-144.47;100.00;61586.06;5069958;28;19920;-77
2022/09/04 03:51:58;;;;;;;10.85;9.85;;;;;;;-144.47;100.00;61586.06;5068317;28;20043;-78
2022/09/04 03:54:57;;;;;;;9.88;9.07;;;;;;;-144.47;100.00;61586.06;5066854;28;20521;-77
2022/09/04 03:57:29;;;;;;;9.63;8.82;;;;;;;-144.47;100.00;61586.06;5067986;28;20029;-77
2022/09/04 04:00:12;;;;;;;10.57;9.43;;;;;;;-144.47;100.00;61586.06;5075497;28;20032;-78
2022/09/04 04:03:11;;;;;;;8.63;7.80;;;;;;;-144.47;100.00;61586.06;5065212;28;20401;-77
2022/09/04 04:06:14;;;;;;;8.20;7.50;;;;;;;-144.47;100.00;61586.06;5066748;28;20044;-77
2022/09/04 04:09:06;;;;;;;9.30;8.38;;;;;;;-144.47;100.00;61586.06;5066892;28;20070;-77
2022/09/04 04:11:52;;;;;;;9.90;8.75;;;;;;;-144.47;100.00;61586.06;5069778;28;20049;-78
2022/09/04 04:14:41;;;;;;;9.77;8.77;;;;;;;-144.47;100.00;61586.06;5064732;28;20051;-77
2022/09/04 04:17:22;;;;;;;11.97;9.37;;;;;;;-144.47;100.00;61586.06;5067236;28;20060;-78
2022/09/04 04:20:20;;;;;;;9.35;8.52;;;;;;;18.51;100.00;61586.06;5067823;28;20048;-78
2022/09/04 04:23:16;;;;;;;10.10;9.13;;;;;;;-144.47;100.00;61586.06;5067947;28;20033;-78
2022/09/04 04:26:09;;;;;;;10.65;9.63;;;;;;;-144.47;100.00;61586.06;5066276;28;20036;-77
2022/09/04 04:28:35;;;;;;;12.23;10.98;;;;;;;18.60;100.00;61586.06;5064435;28;20771;-77
2022/09/04 04:31:26;;;;;;;12.00;10.75;;;;;;;-144.47;100.00;61586.06;5074835;28;20099;-78
2022/09/04 04:34:06;;;;;;;14.77;13.40;;;;;;;-144.47;100.00;61586.06;5067396;28;20037;-78
2022/09/04 04:36:35;;;;;;;12.18;11.07;;;;;;;-144.47;100.00;61586.06;5068481;28;20098;-77
2022/09/04 04:39:04;;;;;;;13.88;12.63;;;;;;;-144.47;100.00;61586.06;5070246;28;20039;-77
2022/09/04 04:42:04;;;;;;;10.10;9.20;;;;;;;-144.47;100.00;61586.06;5068916;28;20055;-77
2022/09/04 04:47:39;;;;;;;9.85;8.75;;;;;;;-144.47;100.00;61586.06;5068126;28;20404;-78
2022/09/04 04:50:21;;;;;;;9.52;8.23;;;;;;;-144.47;100.00;61586.06;5064081;28;20127;-77
2022/09/04 04:53:18;;;;;;;10.13;8.32;;;;;;;-144.47;100.00;61586.06;5067500;28;20090;-78
2022/09/04 04:56:08;;;;;;;9.10;8.35;;;;;;;-144.47;100.00;61586.06;5069827;28;20063;-77
2022/09/04 04:59:19;;;;;;;12.77;10.85;;;;;;;-144.47;100.00;61586.06;5065034;28;20043;-77
2022/09/04 05:01:47;;;;;;;12.95;11.73;;;;;;;-144.47;100.00;61586.06;5071263;28;20047;-78
2022/09/04 05:04:16;;;;;;;14.82;11.70;;;;;;;-144.47;100.00;61586.06;5068871;28;20128;-78
2022/09/04 05:07:00;;;;;;;13.52;12.27;;;;;;;-144.47;100.00;61586.06;5067681;28;20032;-77
2022/09/04 05:09:38;;;;;;;14.95;13.45;;;;;;;-144.47;100.00;61586.06;5063221;28;20484;-77
2022/09/04 05:12:19;;;;;;;15.77;13.63;;;;;;;-144.47;100.00;61586.06;5067053;28;20107;-76
2022/09/04 05:14:57;;;;;;;16.90;13.32;;;;;;;-144.47;100.00;61586.06;5064886;28;20482;-78
2022/09/04 05:18:00;;;;;;;17.50;15.27;;;;;;;-144.47;100.00;61586.06;5068078;28;20103;-77
2022/09/04 05:20:43;;;;;;;16.15;14.70;;;;;;;-144.47;100.00;61586.06;5065457;28;20101;-77
2022/09/04 05:23:31;;;;;;;16.50;14.73;;;;;;;-144.47;100.00;61586.06;5058522;28;20399;-76
2022/09/04 05:26:20;;;;;;;16.25;14.63;;;;;;;-144.47;100.00;61586.06;5069994;28;20032;-75
2022/09/04 05:28:54;;;;;;;16.67;15.07;;;;;;;-144.47;100.00;61586.06;5063645;28;20032;-79
2022/09/04 05:31:38;;;;;;;17.63;15.93;;;;;;;-144.47;100.00;61586.06;5070242;28;20032;-78
2022/09/04 05:34:56;;;;;;;17.60;16.08;;;;;;;-144.47;100.00;61586.06;5068722;28;20157;-77
2022/09/04 05:38:00;;;;;;;18.75;16.90;;;;;;;-144.47;100.00;61586.06;5067857;28;20139;-78
2022/09/04 05:40:28;;;;;;;19.70;17.77;;;;;;;-144.47;100.00;61586.06;5068524;28;20056;-76
2022/09/04 05:43:06;;;;;;;19.00;17.13;;;;;;;-144.47;100.00;61586.06;5067796;28;20123;-78
2022/09/04 05:46:02;;;;;;;19.92;17.00;;;;;;;-144.47;100.00;61586.06;5068542;28;20059;-78
2022/09/04 05:48:43;;;;;;;17.35;15.57;;;;;;;-144.47;100.00;61586.06;5068519;28;20056;-78
2022/09/04 05:51:50;;;;;;;18.05;15.20;;;;;;;-144.47;100.00;61586.06;5069703;28;20032;-78
2022/09/04 05:54:34;;;;;;;17.05;15.05;;;;;;;-144.47;100.00;61586.06;5067655;28;20060;-78
2022/09/04 05:57:11;;;;;;;16.67;15.13;;;;;;;187.31;100.00;61586.06;5071408;28;20082;-78
2022/09/04 05:59:52;;;;;;;19.20;16.35;;;;;;;-144.47;100.00;61586.06;5070622;28;20041;-77
2022/09/04 06:02:26;;;;;;;;;;;;;;;-144.47;100.00;61586.06;5067921;28;20094;-77
2022/09/04 06:05:12;;;;;;;15.45;13.95;;;;;;;18.24;100.00;61586.06;5071006;28;19923;-77
2022/09/04 06:07:52;;;;;;;15.73;10.68;;;;;;;-144.47;100.00;61586.06;5068467;28;20075;-76
2022/09/04 06:10:29;;;;;;;14.35;11.23;;;;;;;-144.47;100.00;61586.06;5067694;28;20052;-78
2022/09/04 06:13:13;;;;;;;12.20;11.10;;;;;;;187.31;100.00;61586.06;5068980;28;20040;-77
2022/09/04 06:16:07;;;;;;;14.45;13.00;;;;;;;-144.47;100.00;61586.06;5070398;28;20033;-78
2022/09/04 06:19:03;;;;;;;14.13;12.88;;;;;;;-144.47;100.00;61586.06;5069066;28;20036;-78
2022/09/04 06:21:44;;;;;;;15.88;14.25;;;;;;;-144.47;100.00;61586.06;5064378;28;20131;-78
2022/09/04 06:24:33;;;;;;;;;;;;;;;-144.47;100.00;61586.06;5067415;28;20496;-78
2022/09/04 06:27:17;;;;;;;16.55;15.05;;;;;;;-144.47;100.00;61586.06;5072359;28;20320;-77
2022/09/04 06:29:57;;;;;;;18.63;15.35;;;;;;;-144.47;100.00;61586.06;5068183;28;20472;-77
2022/09/04 06:32:23;;;;;;;;;;;;;;;-144.47;100.00;61586.06;5070706;28;20028;-78
2022/09/04 06:35:01;;;;;;;16.08;14.48;;;;;;;-144.47;100.00;61586.06;5067637;28;19951;-78
2022/09/04 06:37:45;;;;;;;20.88;15.15;;;;;;;-144.47;100.00;61586.06;5071386;28;20029;-77
2022/09/04 06:40:21;;;;;;;16.63;14.63;;;;;;;-144.47;100.00;61586.06;5064688;28;20028;-78
2022/09/04 06:43:08;;;;;;;16.95;15.27;;;;;;;-144.47;100.00;61586.06;5064193;28;20041;-78
2022/09/04 06:46:07;;;;;;;14.57;13.13;;;;;;;-144.47;100.00;61586.06;5065073;28;20554;-78
2022/09/04 06:48:59;;;;;;;15.88;13.88;;;;;;;18.62;100.00;61586.06;5070244;28;20037;-77
2022/09/04 06:52:09;;;;;;;14.40;13.02;;;;;;;-144.47;100.00;61586.06;5072635;28;20032;-78
2022/09/04 06:55:00;;;;;;;14.73;13.32;;;;;;;-144.47;100.00;61586.06;5070309;28;20034;-77
2022/09/04 06:57:41;;;;;;;13.98;12.52;;;;;;;-144.47;100.00;61586.06;5068819;28;20040;-77
2022/09/04 07:00:10;;;;;;;14.43;13.02;;;;;;;-144.47;100.00;61586.06;5068161;28;20044;-77
2022/09/04 07:02:49;;;;;;;13.93;12.55;;;;;;;-144.47;100.00;61586.06;5067542;28;20059;-77
2022/09/04 07:05:24;;;;;;;14.57;12.38;;;;;;;18.81;100.00;61586.06;5064427;28;20553;-77
2022/09/04 07:08:11;;;;;;;17.17;13.70;;;;;;;-144.47;100.00;61586.06;5064507;28;20476;-77
2022/09/04 07:11:00;;;;;;;14.10;12.73;;;;;;;-144.47;100.00;61586.06;5073089;28;20031;-77
2022/09/04 07:13:58;;;;;;;13.88;12.55;;;;;;;-144.47;100.00;61586.06;5066605;28;20037;-77
2022/09/04 07:16:40;;;;;;;14.98;12.85;;;;;;;-144.47;100.00;61586.06;5063829;28;20492;-78
2022/09/04 07:19:19;;;;;;;16.05;14.50;;;;;;;-144.47;100.00;61586.06;5069126;28;20541;-77
2022/09/04 07:21:54;;;;;;;17.75;15.88;;;;;;;-144.47;100.00;61586.06;5070228;28;20093;-77
2022/09/04 07:24:34;;;;;;;18.73;16.90;;;;;;;-144.47;100.00;61586.06;5070912;28;20044;-78
2022/09/04 07:27:07;;;;;;;17.95;16.13;;;;;;;-144.47;100.00;61586.06;5064314;28;20468;-78
2022/09/04 07:29:44;;;;;;;18.80;16.92;;;;;;;-144.47;100.00;61586.06;5075016;28;20029;-77
2022/09/04 07:32:21;;;;;;;19.58;17.67;;;;;;;-144.47;100.00;61586.06;5064253;28;20115;-77
2022/09/04 07:35:17;;;;;;;17.58;15.88;;;;;;;-144.47;100.00;61586.06;5066925;28;20029;-76
2022/09/04 07:37:57;;;;;;;18.77;17.05;;;;;;;-144.47;100.00;61586.06;5064925;28;20039;-77
2022/09/04 07:40:22;;;;;;;20.98;18.95;;;;;;;-144.47;100.00;61586.06;5060417;28;20496;-77
2022/09/04 07:42:57;;;;;;;20.63;18.65;;;;;;;-144.47;100.00;61586.06;5069551;28;20060;-77
2022/09/04 07:45:37;;;;;;;19.95;17.95;;;;;;;-144.47;100.00;61586.06;5067872;28;20032;-77
2022/09/04 07:48:08;;;;;;;20.10;18.13;;;;;;;-144.47;100.00;61586.06;5075383;28;20040;-76
2022/09/04 07:50:49;;;;;;;19.45;17.48;;;;;;;187.31;100.00;61586.06;5064365;28;20416;-77
2022/09/04 07:53:29;;;;;;;20.77;18.70;;;;;;;187.31;100.00;61586.06;5070075;28;20884;-77
2022/09/04 07:56:07;;;;;;;20.48;18.45;;;;;;;19.97;100.00;61586.06;5067573;28;20064;-77
2022/09/04 07:59:04;;;;;;;20.35;18.33;;;;;;;19.97;100.00;61586.06;5063710;28;20527;-76
2022/09/04 08:01:41;;;;;;;19.95;17.77;;;;;;;-144.47;100.00;61586.06;5066959;28;20044;-77
2022/09/04 08:04:39;;;;;;;21.33;19.15;;;;;;;187.31;100.00;61586.06;5065766;28;20029;-78
2022/09/04 08:07:19;;;;;;;19.73;17.88;;;;;;;187.31;100.00;61586.06;5068980;28;20041;-77
2022/09/04 08:09:57;;;;;;;;;;;;;;;-144.47;100.00;61586.06;5066168;28;20384;-78
2022/09/04 08:12:41;;;;;;;18.98;17.17;;;;;;;-144.47;100.00;61586.06;5068409;28;19989;-78
2022/09/04 08:15:18;;;;;;;18.95;17.15;;;;;;;-144.47;100.00;61586.06;5066213;28;20037;-78
2022/09/04 08:18:02;;;;;;;18.42;16.60;;;;;;;-144.47;100.00;61586.06;5069192;28;20040;-78
2022/09/04 08:20:59;;;;;;;18.42;16.73;;;;;;;21.26;100.00;61586.06;5067787;28;20047;-78
2022/09/04 08:23:33;;;;;;;16.95;15.55;;;;;;;187.31;100.00;61586.06;5063583;28;20090;-77
2022/09/04 08:26:12;;;;;;;16.52;15.07;;;;;;;187.31;100.00;61586.06;5070292;28;20395;-77
2022/09/04 08:28:59;;;;;;;18.10;15.50;;;;;;;-144.47;100.00;61586.06;5063507;28;20403;-78
2022/09/04 08:31:54;;;;;;;15.98;14.60;;;;;;;-144.47;100.00;61586.06;5064275;28;20060;-78
2022/09/04 08:34:32;;;;;;;15.50;14.07;;;;;;;-144.47;100.00;61586.06;5064775;28;20141;-78
2022/09/04 08:37:17;;;;;;;15.75;14.25;;;;;;;-144.47;100.00;61586.06;5064714;28;20575;-76
2022/09/04 08:40:07;;;;;;;16.15;14.63;;;;;;;-144.47;100.00;61586.06;5069158;28;20093;-76
2022/09/04 08:42:52;;;;;;;15.25;13.93;;;;;;;-144.47;100.00;61586.06;5068497;28;20447;-76
2022/09/04 08:45:33;;;;;;;14.70;13.27;;;;;;;-144.47;100.00;61586.06;5066561;28;20120;-76
2022/09/04 08:48:06;;;;;;;;;;;;;;;-144.47;100.00;61586.06;5070997;28;20040;-78
2022/09/04 08:50:35;;;;;;;15.30;13.75;;;;;;;-144.47;100.00;61586.06;5064369;28;19916;-78
2022/09/04 08:53:09;;;;;;;13.20;12.00;;;;;;;-144.47;100.00;61586.06;5066625;28;20099;-77
2022/09/04 08:55:46;;;;;;;12.57;11.35;;;;;;;-144.47;100.00;61586.06;5068007;28;20032;-78
2022/09/04 08:58:41;;;;;;;11.60;10.60;;;;;;;-144.47;100.00;61586.06;5064736;28;20491;-76
2022/09/04 09:01:07;;;;;;;13.65;11.25;;;;;;;-144.47;100.00;61586.06;5063297;28;20120;-78
2022/09/04 09:03:46;;;;;;;11.27;10.43;;;;;;;-144.47;100.00;61586.06;5068735;28;20159;-77
2022/09/04 09:06:20;;;;;;;10.68;9.63;;;;;;;-144.47;100.00;61586.06;5065992;28;20106;-77
2022/09/04 09:09:22;;;;;;;10.55;9.65;;;;;;;-144.47;100.00;61586.06;5065913;28;20089;-77
2022/09/04 09:11:56;;;;;;;9.57;8.73;;;;;;;-144.47;100.00;61586.06;5063927;28;20064;-77
2022/09/04 09:14:58;;;;;;;8.02;7.43;;;;;;;-144.47;100.00;61586.06;5066735;28;20036;-77
2022/09/04 09:17:51;;;;;;;6.78;6.18;;;;;;;-144.47;100.00;61586.06;5069025;28;20450;-78
2022/09/04 09:20:36;;;;;;;7.50;6.88;;;;;;;-144.47;100.00;61586.06;5063929;28;20052;-76
2022/09/04 09:23:16;;;;;;;7.00;6.50;;;;;;;-144.47;100.00;61586.06;5067824;28;20040;-78
2022/09/04 09:25:51;;;;;;;5.35;4.95;;;;;;;-144.47;100.00;61586.06;5066420;28;20480;-78
2022/09/04 09:28:16;;;;;;;5.43;4.25;;;;;;;-144.47;100.00;61586.06;5065677;28;20036;-78
2022/09/04 09:31:04;;;;;;;6.82;6.10;;;;;;;-144.47;100.00;61586.06;5066960;28;20052;-77
2022/09/04 09:33:45;;;;;;;6.38;5.78;;;;;;;-144.47;100.00;61586.06;5063718;28;20037;-77
2022/09/04 09:36:41;;;;;;;6.68;6.07;;;;;;;-144.47;100.00;61586.06;5065040;28;20029;-77
2022/09/04 09:39:07;;;;;;;6.45;5.10;;;;;;;-144.47;100.00;61586.06;5067746;28;20037;-78
2022/09/04 09:42:04;;;;;;;7.05;6.40;;;;;;;-144.47;100.00;61586.06;5067801;28;20101;-77
2022/09/04 09:44:45;;;;;;;5.97;5.20;;;;;;;104.25;100.00;61586.06;5050459;28;20051;-76
2022/09/04 09:47:29;;;;;;;5.28;4.88;;;;;;;-144.47;100.00;61586.06;5059663;28;20041;-76
2022/09/04 09:50:23;;;;;;;7.72;5.97;;;;;;;-144.47;100.00;61586.06;5066804;28;20210;-75
2022/09/04 09:52:52;;;;;;;5.70;5.20;;;;;;;104.25;100.00;61586.06;5066469;28;20392;-76
2022/09/04 09:55:36;;;;;;;4.70;4.28;;;;;;;-144.47;100.00;61586.06;5062105;28;20108;-75
2022/09/04 09:58:22;;;;;;;4.00;3.75;;;;;;;-144.47;100.00;61586.06;5066015;28;20032;-76
2022/09/04 10:01:14;;;;;;;3.97;3.60;;;;;;;-144.47;100.00;61586.06;5069584;28;20727;-77
2022/09/04 10:04:27;;;;;;;6.85;5.22;;;;;;;-144.47;100.00;61586.06;5063986;28;20184;-77
2022/09/04 10:07:21;;;;;;;4.57;4.22;;;;;;;-144.47;100.00;61586.06;5063146;28;20044;-77
2022/09/04 10:10:38;;;;;;;5.55;3.92;;;;;;;-144.47;100.00;61586.06;5069014;28;20032;-76
2022/09/04 10:13:22;;;;;;;4.60;4.20;;;;;;;-144.47;100.00;61586.06;5055212;28;20053;-74
2022/09/04 10:16:29;;;;;;;3.47;3.22;;;;;;;-144.47;100.00;61586.06;5065059;28;20391;-75
2022/09/04 10:19:27;;;;;;;3.50;3.20;;;;;;;-144.47;100.00;61586.06;5061693;28;20101;-77
2022/09/04 10:22:31;;;;;;;4.60;4.20;;;;;;;-144.47;100.00;61586.06;5064217;28;20033;-77
2022/09/04 10:25:34;;;;;;;4.60;4.25;;;;;;;-144.47;100.00;61586.06;5065327;28;20369;-76
2022/09/04 10:28:00;;;;;;;6.32;3.40;;;;;;;-144.47;100.00;61586.06;5071108;28;20036;-77
2022/09/04 10:30:51;;;;;;;4.38;3.85;;;;;;;-144.47;100.00;61586.06;5067555;28;20052;-76
2022/09/04 10:33:32;;;;;;;3.75;3.25;;;;;;;-144.47;100.00;61586.06;5062470;28;20036;-76
2022/09/04 10:36:13;;;;;;;5.20;3.78;;;;;;;-144.47;100.00;61586.06;5074395;28;20034;-76
2022/09/04 10:41:57;;;;;;;3.38;3.08;;;;;;;-144.47;100.00;61586.06;5066690;28;20060;-77
2022/09/04 10:44:25;;;;;;;3.78;2.97;;;;;;;-144.47;100.00;61586.06;5070849;28;20180;-76
2022/09/04 10:47:23;;;;;;;4.15;3.67;;;;;;;-144.47;100.00;61586.06;5064836;28;20451;-76
2022/09/04 10:50:13;;;;;;;2.72;2.47;;;;;;;-144.47;100.00;61586.06;5070458;28;20108;-76
2022/09/04 10:52:59;;;;;;;;;;;;;;;104.25;100.00;61586.06;5069281;28;20349;-76
2022/09/04 10:55:42;;;;;;;2.75;2.55;;;;;;;104.25;100.00;61586.06;5065634;28;19920;-75
2022/09/04 10:58:25;;;;;;;3.00;2.65;;;;;;;62.74;100.00;61586.06;5071068;28;20097;-76
2022/09/04 11:01:28;;;;;;;3.58;2.05;;;;;;;104.25;100.00;61586.06;5071111;28;20516;-76
2022/09/04 11:04:18;;;;;;;2.83;2.63;;;;;;;62.74;100.00;61586.06;5065928;28;20037;-76
2022/09/04 11:07:16;;;;;;;4.35;2.95;;;;;;;62.74;100.00;61586.06;5067594;28;20029;-75
2022/09/04 11:10:04;;;;;;;2.55;2.35;;;;;;;104.25;100.00;61586.06;5069933;28;20036;-77
2022/09/04 11:12:42;;;;;;;2.85;2.22;;;;;;;104.25;100.00;61586.06;5067197;28;20424;-76
2022/09/04 11:15:26;;;;;;;3.85;2.30;;;;;;;104.25;100.00;61586.06;5064396;28;20476;-77
2022/09/04 11:18:01;;;;;;;3.20;2.10;;;;;;;104.25;100.00;61586.06;5067947;28;20056;-77
2022/09/04 11:21:01;;;;;;;3.88;2.33;;;;;;;62.74;100.00;61586.06;5068896;28;20078;-77
2022/09/04 11:23:52;;;;;;;4.38;2.55;;;;;;;104.25;100.00;61586.06;5066802;28;20385;-76
2022/09/04 11:26:47;;;;;;;2.20;2.00;;;;;;;42.00;100.00;61586.06;5065472;28;20131;-77
2022/09/04 11:29:54;;;;;;;3.53;2.30;;;;;;;-144.47;100.00;61586.06;5061959;28;20095;-76
2022/09/04 11:32:52;;;;;;;2.55;2.25;;;;;;;-144.47;100.00;61586.06;5070134;28;20072;-76
2022/09/04 11:35:31;;;;;;;2.72;1.88;;;;;;;-144.47;100.00;61586.06;5068896;28;20032;-76
2022/09/04 11:37:57;;;;;;;2.10;1.90;;;;;;;-144.47;100.00;61586.06;5064401;28;20419;-76
2022/09/04 11:40:56;;;;;;;4.20;2.20;;;;;;;-144.47;100.00;61586.06;5067646;28;20427;-76
2022/09/04 11:43:35;;;;;;;3.47;2.23;;;;;;;-144.47;100.00;61586.06;5068357;28;20066;-77
2022/09/04 11:46:07;;;;;;;2.80;2.28;;;;;;;-144.47;100.00;61586.06;5066670;28;20059;-76
2022/09/04 11:49:12;;;;;;;4.28;2.58;;;;;;;-144.47;100.00;61586.06;5066117;28;20025;-77
2022/09/04 11:52:30;;;;;;;2.63;2.00;;;;;;;-144.47;100.00;61586.06;5062796;28;20032;-76
2022/09/04 11:54:55;;;;;;;3.15;1.90;;;;;;;-144.47;100.00;61586.06;5072016;28;20043;-76
2022/09/04 11:57:30;;;;;;;2.15;1.92;;;;;;;-144.47;100.00;61586.06;5070617;28;20412;-76
2022/09/04 12:00:04;;;;;;;;;;;;;;;-144.47;100.00;61586.06;5071689;28;20510;-76
2022/09/04 12:02:48;;;;;;;;;;;;;;;-144.47;100.00;61586.06;5068942;28;19999;-75
2022/09/04 12:05:44;;;;;;;7.95;2.03;;;;;;;-144.47;100.00;61586.06;5066807;28;19924;-76
2022/09/04 12:08:24;;;;;;;2.58;2.13;;;;;;;-144.47;100.00;61586.06;5070178;28;20096;-75
2022/09/04 12:10:57;;;;;;;3.58;1.65;;;;;;;-144.47;100.00;61586.06;5066926;28;20041;-76
2022/09/04 12:13:51;;;;;;;3.65;1.90;;;;;;;-144.47;100.00;61586.06;5052042;28;20112;-76
2022/09/04 12:17:01;;;;;;;2.25;1.73;;;;;;;-144.47;100.00;61586.06;5068478;28;20457;-75
2022/09/04 12:19:38;;;;;;;3.25;2.03;;;;;;;-144.47;100.00;61586.06;5068178;28;20493;-76
2022/09/04 12:22:30;;;;;;;3.00;2.08;;;;;;;-144.47;100.00;61586.06;5066774;28;20086;-77
2022/09/04 12:25:13;;;;;;;3.28;1.58;;;;;;;-144.47;100.00;61586.06;5049637;28;20048;-76
2022/09/04 12:27:56;;;;;;;3.10;1.40;;;;;;;-144.47;100.00;61586.06;5066480;28;20433;-76
2022/09/04 12:30:33;;;;;;;3.53;1.88;;;;;;;27.35;100.00;61586.06;5063475;28;20102;-74
2022/09/04 12:33:18;;;;;;;;;;;;;;;42.00;100.00;61586.06;5068049;28;20025;-76
2022/09/04 12:35:49;;;;;;;;;;;;;;;42.00;100.00;61586.06;5068601;28;19916;-76